createdAt,value
2019-03-01T00:03:10.545Z,19.05
2019-03-01T00:08:20.736Z,18.67
2019-03-01T00:13:57.774Z,18.83
2019-03-01T00:19:32.234Z,18.17
2019-03-01T00:25:06.376Z,16.73
2019-03-01T00:31:02.098Z,19.17
2019-03-01T00:36:42.763Z,18.30
2019-03-01T00:42:28.890Z,18.52
2019-03-01T00:47:33.602Z,17.82
2019-03-01T00:52:38.372Z,18.40
2019-03-01T00:57:43.060Z,18.97
2019-03-01T01:02:47.808Z,19.20
2019-03-01T01:07:52.506Z,17.93
2019-03-01T01:12:57.238Z,18.20
2019-03-01T01:18:01.969Z,18.70
2019-03-01T01:23:06.827Z,18.80
2019-03-01T01:28:11.529Z,17.33
2019-03-01T01:33:16.330Z,17.97
2019-03-01T01:38:27.467Z,18.65
2019-03-01T01:43:32.167Z,17.87
2019-03-01T01:48:36.840Z,18.00
2019-03-01T01:53:41.533Z,18.57
2019-03-01T01:58:46.253Z,19.17
2019-03-01T02:03:51.009Z,18.30
2019-03-01T02:08:55.731Z,18.97
2019-03-01T02:14:00.446Z,18.30
2019-03-01T02:19:05.211Z,18.53
2019-03-01T02:24:09.951Z,17.73
2019-03-01T02:29:14.635Z,18.47
2019-03-01T02:34:19.353Z,18.50
2019-03-01T02:39:24.405Z,17.93
2019-03-01T02:44:29.090Z,18.30
2019-03-01T02:49:33.782Z,18.77
2019-03-01T02:54:38.514Z,18.50
2019-03-01T02:59:43.287Z,18.47
2019-03-01T03:04:49.031Z,18.00
2019-03-01T03:09:53.982Z,17.20
2019-03-01T03:14:58.716Z,16.33
2019-03-01T03:20:03.752Z,16.80
2019-03-01T03:25:08.956Z,17.07
2019-03-01T03:30:14.199Z,16.53
2019-03-01T03:35:19.001Z,16.77
2019-03-01T03:40:24.092Z,17.27
2019-03-01T03:45:28.793Z,17.00
2019-03-01T03:50:33.482Z,17.20
2019-03-01T03:55:38.240Z,17.73
2019-03-01T04:00:42.952Z,17.13
2019-03-01T04:05:47.764Z,16.57
2019-03-01T04:10:52.494Z,16.87
2019-03-01T04:15:57.547Z,17.27
2019-03-01T04:21:02.246Z,18.60
2019-03-01T04:26:07.091Z,17.87
2019-03-01T04:31:11.891Z,17.85
2019-03-01T04:36:17.137Z,19.27
2019-03-01T04:41:21.880Z,18.00
2019-03-01T04:46:26.696Z,19.33
2019-03-01T04:51:39.897Z,22.63
2019-03-01T04:56:37.917Z,23.37
2019-03-01T05:01:42.627Z,24.63
2019-03-01T05:06:47.329Z,24.30
2019-03-01T05:11:52.179Z,23.73
2019-03-01T05:16:56.998Z,23.17
2019-03-01T05:22:01.689Z,23.07
2019-03-01T05:27:06.695Z,24.10
2019-03-01T05:32:11.459Z,24.80
2019-03-01T05:37:16.159Z,26.13
2019-03-01T05:42:21.856Z,26.47
2019-03-01T05:47:26.628Z,27.20
2019-03-01T05:52:31.354Z,27.90
2019-03-01T05:57:36.194Z,28.57
2019-03-01T06:02:52.219Z,29.47
2019-03-01T06:08:31.136Z,28.27
2019-03-01T06:14:32.300Z,26.70
2019-03-01T06:20:17.408Z,29.50
2019-03-01T06:25:42.305Z,29.40
2019-03-01T06:31:11.711Z,28.97
2019-03-01T06:36:41.664Z,28.57
2019-03-01T06:42:12.495Z,29.97
2019-03-01T06:47:47.318Z,29.43
2019-03-01T06:52:52.050Z,30.70
2019-03-01T06:57:56.767Z,29.43
2019-03-01T07:03:01.667Z,29.90
2019-03-01T07:08:06.356Z,30.37
2019-03-01T07:13:11.053Z,29.57
2019-03-01T07:18:15.869Z,31.07
2019-03-01T07:23:20.672Z,32.77
2019-03-01T07:28:25.616Z,33.27
2019-03-01T07:33:30.298Z,33.47
2019-03-01T07:38:35.389Z,32.73
2019-03-01T07:43:40.425Z,32.60
2019-03-01T07:48:45.171Z,33.47
2019-03-01T07:53:50.128Z,32.33
2019-03-01T07:58:57.466Z,33.77
2019-03-01T08:04:01.832Z,32.87
2019-03-01T08:09:11.814Z,35.03
2019-03-01T08:14:16.519Z,35.73
2019-03-01T08:19:23.468Z,33.97
2019-03-01T08:24:28.113Z,35.37
2019-03-01T08:29:34.039Z,36.53
2019-03-01T08:34:39.184Z,36.50
2019-03-01T08:39:43.880Z,34.83
2019-03-01T08:44:48.578Z,35.37
2019-03-01T08:49:53.259Z,36.67
2019-03-01T08:55:00.032Z,36.03
2019-03-01T09:00:06.995Z,34.30
2019-03-01T09:05:13.891Z,37.30
2019-03-01T09:10:18.849Z,34.83
2019-03-01T09:15:23.612Z,35.10
2019-03-01T09:20:28.340Z,35.20
2019-03-01T09:25:33.248Z,35.30
2019-03-01T09:30:40.355Z,34.40
2019-03-01T09:36:07.305Z,34.13
2019-03-01T09:41:12.143Z,34.67
2019-03-01T09:46:16.951Z,33.77
2019-03-01T09:51:22.721Z,33.40
2019-03-01T09:56:27.468Z,33.83
2019-03-01T10:01:32.184Z,34.73
2019-03-01T10:06:38.554Z,34.17
2019-03-01T10:11:43.319Z,37.43
2019-03-01T10:16:48.233Z,35.97
2019-03-01T10:21:52.951Z,34.80
2019-03-01T10:26:57.669Z,35.90
2019-03-01T10:32:02.728Z,35.23
2019-03-01T10:37:07.411Z,35.20
2019-03-01T10:42:12.185Z,34.10
2019-03-01T10:47:16.878Z,34.87
2019-03-01T10:52:21.587Z,33.93
2019-03-01T10:57:26.316Z,32.27
2019-03-01T11:02:31.155Z,27.83
2019-03-01T11:07:35.858Z,24.67
2019-03-01T11:12:40.629Z,24.45
2019-03-01T11:17:45.952Z,26.17
2019-03-01T11:22:50.719Z,23.40
2019-03-01T11:27:55.576Z,26.37
2019-03-01T11:33:00.228Z,24.90
2019-03-01T11:38:05.020Z,24.47
2019-03-01T11:43:09.953Z,27.00
2019-03-01T11:48:14.693Z,27.50
2019-03-01T11:53:19.624Z,28.57
2019-03-01T11:58:24.345Z,29.00
2019-03-01T12:03:29.041Z,28.20
2019-03-01T12:08:34.186Z,35.60
2019-03-01T12:13:38.912Z,32.90
2019-03-01T12:18:43.627Z,30.73
2019-03-01T12:23:48.857Z,28.80
2019-03-01T12:28:53.578Z,28.33
2019-03-01T12:33:58.300Z,26.83
2019-03-01T12:39:04.376Z,25.13
2019-03-01T12:44:10.704Z,25.13
2019-03-01T12:49:15.460Z,25.85
2019-03-01T12:54:20.175Z,26.50
2019-03-01T12:59:25.249Z,26.17
2019-03-01T13:04:30.008Z,24.83
2019-03-01T13:09:34.721Z,24.97
2019-03-01T13:14:40.235Z,24.13
2019-03-01T13:19:45.085Z,18.87
2019-03-01T13:24:50.425Z,18.43
2019-03-01T13:29:58.588Z,17.33
2019-03-01T13:35:02.594Z,17.17
2019-03-01T13:40:08.664Z,17.17
2019-03-01T13:45:15.797Z,16.97
2019-03-01T13:50:20.798Z,12.97
2019-03-01T13:55:27.551Z,11.00
2019-03-01T14:00:32.253Z,10.73
2019-03-01T14:05:37.085Z,9.70
2019-03-01T14:10:43.131Z,9.47
2019-03-01T14:15:50.523Z,9.97
2019-03-01T14:20:57.967Z,9.20
2019-03-01T14:26:02.292Z,9.43
2019-03-01T14:31:07.519Z,9.30
2019-03-01T14:36:13.154Z,8.63
2019-03-01T14:41:17.838Z,6.87
2019-03-01T14:46:22.641Z,8.03
2019-03-01T14:51:27.370Z,7.20
2019-03-01T14:56:39.286Z,7.37
2019-03-01T15:01:52.072Z,7.20
2019-03-01T15:06:56.770Z,7.10
2019-03-01T15:12:01.752Z,7.03
2019-03-01T15:17:06.580Z,7.43
2019-03-01T15:22:12.930Z,6.73
2019-03-01T15:27:19.410Z,6.93
2019-03-01T15:32:24.842Z,7.07
2019-03-01T15:37:31.049Z,6.50
2019-03-01T15:42:36.454Z,6.23
2019-03-01T15:47:41.162Z,6.20
2019-03-01T15:52:49.682Z,5.50
2019-03-01T15:57:53.080Z,4.80
2019-03-01T16:02:59.041Z,5.33
2019-03-01T16:08:05.549Z,4.97
2019-03-01T16:13:11.983Z,4.63
2019-03-01T16:18:18.078Z,5.33
2019-03-01T16:23:22.843Z,5.57
2019-03-01T16:28:31.218Z,4.30
2019-03-01T16:33:34.118Z,4.87
2019-03-01T16:38:41.158Z,4.80
2019-03-01T16:43:45.520Z,4.67
2019-03-01T16:48:52.133Z,4.60
2019-03-01T16:53:56.779Z,4.83
2019-03-01T16:59:03.820Z,5.07
2019-03-01T17:04:07.981Z,4.70
2019-03-01T17:09:15.575Z,5.43
2019-03-01T17:14:19.883Z,6.00
2019-03-01T17:19:27.444Z,5.13
2019-03-01T17:24:31.327Z,6.80
2019-03-01T17:29:39.034Z,5.87
2019-03-01T17:34:42.599Z,5.90
2019-03-01T17:39:47.323Z,5.37
2019-03-01T17:44:52.239Z,5.53
2019-03-01T17:49:56.987Z,5.03
2019-03-01T17:55:02.773Z,6.03
2019-03-01T18:00:13.983Z,5.60
2019-03-01T18:05:19.601Z,5.60
2019-03-01T18:10:25.154Z,6.00
2019-03-01T18:15:30.236Z,5.57
2019-03-01T18:20:37.673Z,6.30
2019-03-01T18:25:41.667Z,6.03
2019-03-01T18:30:46.404Z,5.60
2019-03-01T18:35:52.472Z,6.07
2019-03-01T18:40:57.611Z,5.43
2019-03-01T18:46:02.374Z,4.27
2019-03-01T18:51:08.157Z,4.43
2019-03-01T18:56:12.900Z,5.00
2019-03-01T19:01:17.607Z,4.70
2019-03-01T19:06:22.343Z,4.40
2019-03-01T19:11:27.209Z,3.90
2019-03-01T19:16:32.019Z,4.30
2019-03-01T19:21:37.989Z,3.63
2019-03-01T19:26:42.709Z,3.70
2019-03-01T19:31:47.804Z,3.77
2019-03-01T19:36:52.590Z,5.10
2019-03-01T19:41:58.027Z,4.23
2019-03-01T19:47:04.568Z,3.67
2019-03-01T19:52:11.915Z,3.50
2019-03-01T19:57:15.773Z,4.00
2019-03-01T20:02:20.531Z,4.20
2019-03-01T20:07:25.281Z,4.10
2019-03-01T20:12:30.091Z,4.37
2019-03-01T20:17:44.050Z,4.00
2019-03-01T20:22:41.460Z,4.03
2019-03-01T20:27:46.270Z,4.13
2019-03-01T20:32:52.180Z,3.87
2019-03-01T20:38:00.117Z,4.20
2019-03-01T20:43:07.026Z,3.50
2019-03-01T20:48:12.052Z,3.57
2019-03-01T20:53:16.843Z,4.37
2019-03-01T20:58:22.144Z,4.40
2019-03-01T21:03:29.959Z,3.97
2019-03-01T21:08:33.840Z,4.40
2019-03-01T21:13:38.642Z,4.73
2019-03-01T21:18:43.364Z,4.37
2019-03-01T21:23:51.021Z,4.37
2019-03-01T21:28:54.617Z,4.80
2019-03-01T21:34:02.536Z,4.60
2019-03-01T21:39:06.416Z,4.30
2019-03-01T21:44:13.045Z,3.93
2019-03-01T21:49:18.056Z,4.27
2019-03-01T21:54:22.829Z,4.40
2019-03-01T21:59:27.520Z,4.57
2019-03-01T22:04:34.381Z,4.00
2019-03-01T22:09:38.590Z,4.27
2019-03-01T22:14:45.714Z,4.13
2019-03-01T22:19:49.771Z,3.67
2019-03-01T22:24:54.495Z,4.03
2019-03-01T22:30:00.008Z,3.60
2019-03-01T22:35:08.551Z,3.73
2019-03-01T22:40:11.639Z,4.20
2019-03-01T22:45:16.425Z,3.83
2019-03-01T22:50:21.204Z,3.97
2019-03-01T22:55:25.971Z,4.00
2019-03-01T23:01:06.369Z,3.63
2019-03-01T23:06:14.751Z,3.87
2019-03-01T23:11:18.911Z,3.70
2019-03-01T23:16:23.585Z,3.80
2019-03-01T23:21:28.579Z,3.50
2019-03-01T23:26:33.302Z,4.10
2019-03-01T23:31:38.997Z,4.10
2019-03-01T23:36:45.864Z,4.20
2019-03-01T23:41:50.643Z,4.37
2019-03-01T23:46:55.358Z,4.33
2019-03-01T23:52:00.069Z,4.60
2019-03-01T23:57:05.727Z,4.40
